sensor_id;sensor_type;location;lat;lon;timestamp;temperature;humidity
33827;DHT22;20128;45.582;5.298;2023-09-07T00:01:33;25.20;51.30
33827;DHT22;20128;45.582;5.298;2023-09-07T00:03:58;25.20;51.50
33827;DHT22;20128;45.582;5.298;2023-09-07T00:06:24;25.20;51.50
33827;DHT22;20128;45.582;5.298;2023-09-07T00:08:51;25.10;51.40
33827;DHT22;20128;45.582;5.298;2023-09-07T00:11:16;25.10;51.40
33827;DHT22;20128;45.582;5.298;2023-09-07T00:13:42;25.10;51.30
33827;DHT22;20128;45.582;5.298;2023-09-07T00:16:08;25.10;51.20
33827;DHT22;20128;45.582;5.298;2023-09-07T00:18:34;25.10;51.30
33827;DHT22;20128;45.582;5.298;2023-09-07T00:21:00;25.10;50.90
33827;DHT22;20128;45.582;5.298;2023-09-07T00:23:26;25.10;50.90
33827;DHT22;20128;45.582;5.298;2023-09-07T00:25:52;25.00;51.10
33827;DHT22;20128;45.582;5.298;2023-09-07T00:28:18;25.00;51.20
33827;DHT22;20128;45.582;5.298;2023-09-07T00:30:44;24.90;51.20
33827;DHT22;20128;45.582;5.298;2023-09-07T00:33:10;24.90;51.30
33827;DHT22;20128;45.582;5.298;2023-09-07T00:35:36;24.90;51.40
33827;DHT22;20128;45.582;5.298;2023-09-07T00:38:02;24.80;51.40
33827;DHT22;20128;45.582;5.298;2023-09-07T00:40:28;24.80;51.40
33827;DHT22;20128;45.582;5.298;2023-09-07T00:42:54;24.80;51.50
33827;DHT22;20128;45.582;5.298;2023-09-07T00:45:20;24.80;51.50
33827;DHT22;20128;45.582;5.298;2023-09-07T00:47:45;24.80;51.50
33827;DHT22;20128;45.582;5.298;2023-09-07T00:50:11;24.70;51.10
33827;DHT22;20128;45.582;5.298;2023-09-07T00:52:40;24.70;51.20
33827;DHT22;20128;45.582;5.298;2023-09-07T00:55:07;24.70;51.30
33827;DHT22;20128;45.582;5.298;2023-09-07T00:57:34;24.70;51.50
33827;DHT22;20128;45.582;5.298;2023-09-07T01:00:00;24.70;51.60
33827;DHT22;20128;45.582;5.298;2023-09-07T01:02:26;24.60;51.30
33827;DHT22;20128;45.582;5.298;2023-09-07T01:04:52;24.50;51.30
33827;DHT22;20128;45.582;5.298;2023-09-07T01:07:26;24.60;51.20
33827;DHT22;20128;45.582;5.298;2023-09-07T01:09:56;24.60;51.20
33827;DHT22;20128;45.582;5.298;2023-09-07T01:12:23;24.50;51.20
33827;DHT22;20128;45.582;5.298;2023-09-07T01:14:49;24.50;51.20
33827;DHT22;20128;45.582;5.298;2023-09-07T01:17:14;24.40;51.30
33827;DHT22;20128;45.582;5.298;2023-09-07T01:19:41;24.40;51.40
33827;DHT22;20128;45.582;5.298;2023-09-07T01:22:08;24.40;51.60
33827;DHT22;20128;45.582;5.298;2023-09-07T01:24:34;24.40;51.40
33827;DHT22;20128;45.582;5.298;2023-09-07T01:27:03;24.40;51.40
33827;DHT22;20128;45.582;5.298;2023-09-07T01:29:30;24.40;51.50
33827;DHT22;20128;45.582;5.298;2023-09-07T01:31:56;24.30;51.50
33827;DHT22;20128;45.582;5.298;2023-09-07T01:34:22;24.30;51.70
33827;DHT22;20128;45.582;5.298;2023-09-07T01:36:49;24.30;52.50
33827;DHT22;20128;45.582;5.298;2023-09-07T01:39:14;24.20;51.90
33827;DHT22;20128;45.582;5.298;2023-09-07T01:41:40;24.10;52.10
33827;DHT22;20128;45.582;5.298;2023-09-07T01:44:06;24.20;52.20
33827;DHT22;20128;45.582;5.298;2023-09-07T01:46:31;24.10;52.10
33827;DHT22;20128;45.582;5.298;2023-09-07T01:48:57;24.20;52.20
33827;DHT22;20128;45.582;5.298;2023-09-07T01:51:23;24.20;52.20
33827;DHT22;20128;45.582;5.298;2023-09-07T01:53:48;24.30;52.20
33827;DHT22;20128;45.582;5.298;2023-09-07T01:56:16;24.40;51.90
33827;DHT22;20128;45.582;5.298;2023-09-07T01:58:42;24.40;51.90
33827;DHT22;20128;45.582;5.298;2023-09-07T02:01:09;24.40;52.20
33827;DHT22;20128;45.582;5.298;2023-09-07T02:03:34;24.40;52.00
33827;DHT22;20128;45.582;5.298;2023-09-07T02:06:00;24.40;52.60
33827;DHT22;20128;45.582;5.298;2023-09-07T02:08:26;24.50;53.70
33827;DHT22;20128;45.582;5.298;2023-09-07T02:10:51;24.50;52.70
33827;DHT22;20128;45.582;5.298;2023-09-07T02:13:17;24.50;52.10
33827;DHT22;20128;45.582;5.298;2023-09-07T02:15:42;24.60;52.30
33827;DHT22;20128;45.582;5.298;2023-09-07T02:18:08;24.60;52.30
33827;DHT22;20128;45.582;5.298;2023-09-07T02:20:33;24.60;52.30
33827;DHT22;20128;45.582;5.298;2023-09-07T02:23:00;24.60;52.20
33827;DHT22;20128;45.582;5.298;2023-09-07T02:25:26;24.50;52.90
33827;DHT22;20128;45.582;5.298;2023-09-07T02:27:53;24.50;52.90
33827;DHT22;20128;45.582;5.298;2023-09-07T02:30:19;24.50;53.10
33827;DHT22;20128;45.582;5.298;2023-09-07T02:32:44;24.50;53.50
33827;DHT22;20128;45.582;5.298;2023-09-07T02:35:10;24.50;53.50
33827;DHT22;20128;45.582;5.298;2023-09-07T02:37:36;24.50;53.40
33827;DHT22;20128;45.582;5.298;2023-09-07T02:40:02;24.60;53.30
33827;DHT22;20128;45.582;5.298;2023-09-07T02:42:33;24.50;53.90
33827;DHT22;20128;45.582;5.298;2023-09-07T02:44:58;24.60;53.60
33827;DHT22;20128;45.582;5.298;2023-09-07T02:47:24;24.60;53.50
33827;DHT22;20128;45.582;5.298;2023-09-07T02:49:49;24.60;53.60
33827;DHT22;20128;45.582;5.298;2023-09-07T02:52:15;24.50;53.40
33827;DHT22;20128;45.582;5.298;2023-09-07T02:54:41;24.50;53.40
33827;DHT22;20128;45.582;5.298;2023-09-07T02:57:07;24.50;53.80
33827;DHT22;20128;45.582;5.298;2023-09-07T02:59:33;24.50;53.80
33827;DHT22;20128;45.582;5.298;2023-09-07T03:01:58;24.40;53.60
33827;DHT22;20128;45.582;5.298;2023-09-07T03:04:24;24.40;53.60
33827;DHT22;20128;45.582;5.298;2023-09-07T03:06:50;24.30;53.80
33827;DHT22;20128;45.582;5.298;2023-09-07T03:09:15;24.30;54.00
33827;DHT22;20128;45.582;5.298;2023-09-07T03:11:41;24.20;54.20
33827;DHT22;20128;45.582;5.298;2023-09-07T03:14:07;24.10;54.10
33827;DHT22;20128;45.582;5.298;2023-09-07T03:16:32;24.00;54.30
33827;DHT22;20128;45.582;5.298;2023-09-07T03:18:58;23.80;54.30
33827;DHT22;20128;45.582;5.298;2023-09-07T03:21:23;23.70;54.60
33827;DHT22;20128;45.582;5.298;2023-09-07T03:23:56;23.70;54.80
33827;DHT22;20128;45.582;5.298;2023-09-07T03:26:21;23.70;54.80
33827;DHT22;20128;45.582;5.298;2023-09-07T03:28:47;23.60;54.70
33827;DHT22;20128;45.582;5.298;2023-09-07T03:31:12;23.60;54.80
33827;DHT22;20128;45.582;5.298;2023-09-07T03:33:38;23.60;54.90
33827;DHT22;20128;45.582;5.298;2023-09-07T03:36:04;23.60;54.90
33827;DHT22;20128;45.582;5.298;2023-09-07T03:38:30;23.50;55.50
33827;DHT22;20128;45.582;5.298;2023-09-07T03:40:55;23.60;55.40
33827;DHT22;20128;45.582;5.298;2023-09-07T03:43:21;23.60;55.10
33827;DHT22;20128;45.582;5.298;2023-09-07T03:45:47;23.50;55.20
33827;DHT22;20128;45.582;5.298;2023-09-07T03:48:12;23.50;55.50
33827;DHT22;20128;45.582;5.298;2023-09-07T03:50:38;23.50;55.60
33827;DHT22;20128;45.582;5.298;2023-09-07T03:53:03;23.50;55.60
33827;DHT22;20128;45.582;5.298;2023-09-07T03:55:29;23.40;55.70
33827;DHT22;20128;45.582;5.298;2023-09-07T03:57:55;23.30;55.80
33827;DHT22;20128;45.582;5.298;2023-09-07T04:00:20;23.30;55.90
33827;DHT22;20128;45.582;5.298;2023-09-07T04:02:46;23.20;56.40
33827;DHT22;20128;45.582;5.298;2023-09-07T04:05:12;23.30;56.50
33827;DHT22;20128;45.582;5.298;2023-09-07T04:07:38;23.40;56.60
33827;DHT22;20128;45.582;5.298;2023-09-07T04:10:05;23.40;56.60
33827;DHT22;20128;45.582;5.298;2023-09-07T04:12:30;23.50;56.60
33827;DHT22;20128;45.582;5.298;2023-09-07T04:14:56;23.50;56.40
33827;DHT22;20128;45.582;5.298;2023-09-07T04:17:22;23.60;56.70
33827;DHT22;20128;45.582;5.298;2023-09-07T04:19:48;23.70;56.90
33827;DHT22;20128;45.582;5.298;2023-09-07T04:22:13;23.70;56.80
33827;DHT22;20128;45.582;5.298;2023-09-07T04:24:39;23.60;56.50
33827;DHT22;20128;45.582;5.298;2023-09-07T04:27:05;23.60;56.60
33827;DHT22;20128;45.582;5.298;2023-09-07T04:29:30;23.60;56.50
33827;DHT22;20128;45.582;5.298;2023-09-07T04:31:56;23.60;56.70
33827;DHT22;20128;45.582;5.298;2023-09-07T04:34:22;23.60;57.00
33827;DHT22;20128;45.582;5.298;2023-09-07T04:36:48;23.60;56.70
33827;DHT22;20128;45.582;5.298;2023-09-07T04:39:14;23.50;56.60
33827;DHT22;20128;45.582;5.298;2023-09-07T04:41:40;23.50;56.70
33827;DHT22;20128;45.582;5.298;2023-09-07T04:44:06;23.50;56.90
33827;DHT22;20128;45.582;5.298;2023-09-07T04:46:31;23.50;57.20
33827;DHT22;20128;45.582;5.298;2023-09-07T04:48:57;23.50;57.30
33827;DHT22;20128;45.582;5.298;2023-09-07T04:51:23;23.50;57.40
33827;DHT22;20128;45.582;5.298;2023-09-07T04:53:50;23.50;57.60
33827;DHT22;20128;45.582;5.298;2023-09-07T04:56:16;23.50;57.50
33827;DHT22;20128;45.582;5.298;2023-09-07T04:58:42;23.50;57.60
33827;DHT22;20128;45.582;5.298;2023-09-07T05:01:10;23.50;57.40
33827;DHT22;20128;45.582;5.298;2023-09-07T05:03:37;23.40;57.20
33827;DHT22;20128;45.582;5.298;2023-09-07T05:06:04;23.30;57.60
33827;DHT22;20128;45.582;5.298;2023-09-07T05:08:30;23.20;57.60
33827;DHT22;20128;45.582;5.298;2023-09-07T05:10:57;23.20;58.00
33827;DHT22;20128;45.582;5.298;2023-09-07T05:13:24;23.20;58.40
33827;DHT22;20128;45.582;5.298;2023-09-07T05:15:51;23.20;58.00
33827;DHT22;20128;45.582;5.298;2023-09-07T05:18:17;23.10;57.90
33827;DHT22;20128;45.582;5.298;2023-09-07T05:20:44;23.20;57.80
33827;DHT22;20128;45.582;5.298;2023-09-07T05:23:14;23.10;58.00
33827;DHT22;20128;45.582;5.298;2023-09-07T05:25:52;23.00;57.90
33827;DHT22;20128;45.582;5.298;2023-09-07T05:28:18;23.00;58.00
33827;DHT22;20128;45.582;5.298;2023-09-07T05:30:44;22.90;58.10
33827;DHT22;20128;45.582;5.298;2023-09-07T05:33:11;22.80;58.30
33827;DHT22;20128;45.582;5.298;2023-09-07T05:35:37;22.90;58.30
33827;DHT22;20128;45.582;5.298;2023-09-07T05:38:04;22.90;58.10
33827;DHT22;20128;45.582;5.298;2023-09-07T05:40:34;23.00;58.10
33827;DHT22;20128;45.582;5.298;2023-09-07T05:43:00;23.00;57.90
33827;DHT22;20128;45.582;5.298;2023-09-07T05:45:25;23.10;57.80
33827;DHT22;20128;45.582;5.298;2023-09-07T05:47:51;23.10;57.70
33827;DHT22;20128;45.582;5.298;2023-09-07T05:50:16;23.20;57.70
33827;DHT22;20128;45.582;5.298;2023-09-07T05:52:42;23.20;57.60
33827;DHT22;20128;45.582;5.298;2023-09-07T05:55:08;23.20;57.40
33827;DHT22;20128;45.582;5.298;2023-09-07T05:57:33;23.20;58.00
33827;DHT22;20128;45.582;5.298;2023-09-07T05:59:59;23.20;57.40
33827;DHT22;20128;45.582;5.298;2023-09-07T06:02:25;23.20;57.50
33827;DHT22;20128;45.582;5.298;2023-09-07T06:04:50;23.10;57.40
33827;DHT22;20128;45.582;5.298;2023-09-07T06:07:16;23.10;57.60
33827;DHT22;20128;45.582;5.298;2023-09-07T06:09:41;23.00;57.80
33827;DHT22;20128;45.582;5.298;2023-09-07T06:12:07;23.00;58.20
33827;DHT22;20128;45.582;5.298;2023-09-07T06:14:33;23.00;58.00
33827;DHT22;20128;45.582;5.298;2023-09-07T06:16:58;23.10;58.10
33827;DHT22;20128;45.582;5.298;2023-09-07T06:19:24;23.10;58.00
33827;DHT22;20128;45.582;5.298;2023-09-07T06:21:49;23.20;58.10
33827;DHT22;20128;45.582;5.298;2023-09-07T06:24:15;23.20;58.10
33827;DHT22;20128;45.582;5.298;2023-09-07T06:26:41;23.20;58.10
33827;DHT22;20128;45.582;5.298;2023-09-07T06:29:08;23.30;58.20
33827;DHT22;20128;45.582;5.298;2023-09-07T06:31:33;23.40;58.20
33827;DHT22;20128;45.582;5.298;2023-09-07T06:33:59;23.40;58.20
33827;DHT22;20128;45.582;5.298;2023-09-07T06:36:24;23.40;58.20
33827;DHT22;20128;45.582;5.298;2023-09-07T06:38:50;23.50;58.20
33827;DHT22;20128;45.582;5.298;2023-09-07T06:41:16;23.50;58.20
33827;DHT22;20128;45.582;5.298;2023-09-07T06:43:41;23.50;58.30
33827;DHT22;20128;45.582;5.298;2023-09-07T06:46:08;23.50;58.30
33827;DHT22;20128;45.582;5.298;2023-09-07T06:48:35;23.60;58.30
33827;DHT22;20128;45.582;5.298;2023-09-07T06:51:04;23.60;58.30
33827;DHT22;20128;45.582;5.298;2023-09-07T06:53:31;23.70;58.40
33827;DHT22;20128;45.582;5.298;2023-09-07T06:56:00;23.70;58.40
33827;DHT22;20128;45.582;5.298;2023-09-07T06:58:26;23.70;58.40
33827;DHT22;20128;45.582;5.298;2023-09-07T07:00:52;23.80;58.40
33827;DHT22;20128;45.582;5.298;2023-09-07T07:03:18;23.90;58.50
33827;DHT22;20128;45.582;5.298;2023-09-07T07:05:44;24.00;58.60
33827;DHT22;20128;45.582;5.298;2023-09-07T07:08:10;24.00;58.10
33827;DHT22;20128;45.582;5.298;2023-09-07T07:10:35;24.00;57.80
33827;DHT22;20128;45.582;5.298;2023-09-07T07:13:01;24.00;58.00
33827;DHT22;20128;45.582;5.298;2023-09-07T07:15:26;24.10;57.70
33827;DHT22;20128;45.582;5.298;2023-09-07T07:17:52;24.10;56.70
33827;DHT22;20128;45.582;5.298;2023-09-07T07:20:17;24.10;56.40
33827;DHT22;20128;45.582;5.298;2023-09-07T07:22:43;24.10;56.20
33827;DHT22;20128;45.582;5.298;2023-09-07T07:25:09;24.10;55.30
33827;DHT22;20128;45.582;5.298;2023-09-07T07:27:36;24.10;55.00
33827;DHT22;20128;45.582;5.298;2023-09-07T07:30:02;24.20;54.60
33827;DHT22;20128;45.582;5.298;2023-09-07T07:32:28;24.20;54.50
33827;DHT22;20128;45.582;5.298;2023-09-07T07:34:53;24.30;54.40
33827;DHT22;20128;45.582;5.298;2023-09-07T07:37:19;24.40;53.30
33827;DHT22;20128;45.582;5.298;2023-09-07T07:39:44;24.50;53.00
33827;DHT22;20128;45.582;5.298;2023-09-07T07:42:10;24.60;51.50
33827;DHT22;20128;45.582;5.298;2023-09-07T07:44:36;24.60;51.20
33827;DHT22;20128;45.582;5.298;2023-09-07T07:47:01;24.70;50.90
33827;DHT22;20128;45.582;5.298;2023-09-07T07:49:27;24.70;50.60
33827;DHT22;20128;45.582;5.298;2023-09-07T07:51:53;24.80;50.40
33827;DHT22;20128;45.582;5.298;2023-09-07T07:54:20;24.80;49.60
33827;DHT22;20128;45.582;5.298;2023-09-07T07:56:48;24.90;49.70
33827;DHT22;20128;45.582;5.298;2023-09-07T07:59:13;24.90;50.10
33827;DHT22;20128;45.582;5.298;2023-09-07T08:01:39;25.00;49.50
33827;DHT22;20128;45.582;5.298;2023-09-07T08:04:05;25.10;49.50
33827;DHT22;20128;45.582;5.298;2023-09-07T08:06:32;25.10;49.20
33827;DHT22;20128;45.582;5.298;2023-09-07T08:08:58;25.30;49.30
33827;DHT22;20128;45.582;5.298;2023-09-07T08:11:23;25.30;49.20
33827;DHT22;20128;45.582;5.298;2023-09-07T08:13:49;25.50;49.20
33827;DHT22;20128;45.582;5.298;2023-09-07T08:16:15;25.60;48.90
33827;DHT22;20128;45.582;5.298;2023-09-07T08:18:41;25.70;49.30
33827;DHT22;20128;45.582;5.298;2023-09-07T08:21:07;25.80;49.20
33827;DHT22;20128;45.582;5.298;2023-09-07T08:23:32;25.80;49.20
33827;DHT22;20128;45.582;5.298;2023-09-07T08:25:58;25.90;48.70
33827;DHT22;20128;45.582;5.298;2023-09-07T08:28:24;26.00;48.90
33827;DHT22;20128;45.582;5.298;2023-09-07T08:30:51;26.10;48.60
33827;DHT22;20128;45.582;5.298;2023-09-07T08:33:19;26.30;48.50
33827;DHT22;20128;45.582;5.298;2023-09-07T08:35:45;26.30;48.50
33827;DHT22;20128;45.582;5.298;2023-09-07T08:38:11;26.40;48.30
33827;DHT22;20128;45.582;5.298;2023-09-07T08:40:38;26.40;48.40
33827;DHT22;20128;45.582;5.298;2023-09-07T08:43:08;26.50;48.50
33827;DHT22;20128;45.582;5.298;2023-09-07T08:45:40;26.60;48.30
33827;DHT22;20128;45.582;5.298;2023-09-07T08:48:08;26.70;48.50
33827;DHT22;20128;45.582;5.298;2023-09-07T08:50:36;26.90;48.10
33827;DHT22;20128;45.582;5.298;2023-09-07T08:53:03;26.90;48.60
33827;DHT22;20128;45.582;5.298;2023-09-07T08:55:30;27.00;48.20
33827;DHT22;20128;45.582;5.298;2023-09-07T08:57:56;27.10;48.50
33827;DHT22;20128;45.582;5.298;2023-09-07T09:00:22;27.20;48.00
33827;DHT22;20128;45.582;5.298;2023-09-07T09:02:48;27.30;48.40
33827;DHT22;20128;45.582;5.298;2023-09-07T09:05:15;27.40;48.10
33827;DHT22;20128;45.582;5.298;2023-09-07T09:07:43;27.50;48.00
33827;DHT22;20128;45.582;5.298;2023-09-07T09:10:10;27.60;47.80
33827;DHT22;20128;45.582;5.298;2023-09-07T09:12:35;27.70;48.00
33827;DHT22;20128;45.582;5.298;2023-09-07T09:15:01;27.80;48.00
33827;DHT22;20128;45.582;5.298;2023-09-07T09:17:28;28.00;47.50
33827;DHT22;20128;45.582;5.298;2023-09-07T09:19:54;28.10;47.70
33827;DHT22;20128;45.582;5.298;2023-09-07T09:22:20;28.20;47.80
33827;DHT22;20128;45.582;5.298;2023-09-07T09:24:50;28.40;47.50
33827;DHT22;20128;45.582;5.298;2023-09-07T09:27:16;28.50;47.40
33827;DHT22;20128;45.582;5.298;2023-09-07T09:29:42;28.70;47.40
33827;DHT22;20128;45.582;5.298;2023-09-07T09:32:08;28.80;46.60
33827;DHT22;20128;45.582;5.298;2023-09-07T09:34:35;28.90;46.00
33827;DHT22;20128;45.582;5.298;2023-09-07T09:37:04;28.90;45.90
33827;DHT22;20128;45.582;5.298;2023-09-07T09:39:30;29.00;45.70
33827;DHT22;20128;45.582;5.298;2023-09-07T09:41:56;29.00;45.90
33827;DHT22;20128;45.582;5.298;2023-09-07T09:44:23;29.00;45.70
33827;DHT22;20128;45.582;5.298;2023-09-07T09:46:52;29.00;45.70
33827;DHT22;20128;45.582;5.298;2023-09-07T09:49:22;29.00;45.90
33827;DHT22;20128;45.582;5.298;2023-09-07T09:51:49;29.00;45.70
33827;DHT22;20128;45.582;5.298;2023-09-07T09:54:20;29.00;45.90
33827;DHT22;20128;45.582;5.298;2023-09-07T09:56:46;29.10;46.10
33827;DHT22;20128;45.582;5.298;2023-09-07T09:59:13;29.20;46.00
33827;DHT22;20128;45.582;5.298;2023-09-07T10:01:47;29.30;45.80
33827;DHT22;20128;45.582;5.298;2023-09-07T10:04:16;29.60;45.90
33827;DHT22;20128;45.582;5.298;2023-09-07T10:06:57;29.70;45.70
33827;DHT22;20128;45.582;5.298;2023-09-07T10:09:29;29.90;45.50
33827;DHT22;20128;45.582;5.298;2023-09-07T10:11:57;30.10;45.30
33827;DHT22;20128;45.582;5.298;2023-09-07T10:14:25;30.20;44.50
33827;DHT22;20128;45.582;5.298;2023-09-07T10:16:53;30.30;44.50
33827;DHT22;20128;45.582;5.298;2023-09-07T10:19:22;30.40;44.20
33827;DHT22;20128;45.582;5.298;2023-09-07T10:21:48;30.50;43.90
33827;DHT22;20128;45.582;5.298;2023-09-07T10:24:31;30.60;44.10
33827;DHT22;20128;45.582;5.298;2023-09-07T10:27:05;30.70;43.90
33827;DHT22;20128;45.582;5.298;2023-09-07T10:29:46;30.80;43.70
33827;DHT22;20128;45.582;5.298;2023-09-07T10:32:12;30.90;43.00
33827;DHT22;20128;45.582;5.298;2023-09-07T10:34:40;31.00;42.50
33827;DHT22;20128;45.582;5.298;2023-09-07T10:37:13;31.00;42.40
33827;DHT22;20128;45.582;5.298;2023-09-07T10:39:39;31.10;42.40
33827;DHT22;20128;45.582;5.298;2023-09-07T10:42:07;31.10;42.40
33827;DHT22;20128;45.582;5.298;2023-09-07T10:44:33;31.10;42.20
33827;DHT22;20128;45.582;5.298;2023-09-07T10:47:00;31.20;42.20
33827;DHT22;20128;45.582;5.298;2023-09-07T10:49:25;31.30;42.20
33827;DHT22;20128;45.582;5.298;2023-09-07T10:51:51;31.20;42.10
33827;DHT22;20128;45.582;5.298;2023-09-07T10:54:21;31.30;42.20
33827;DHT22;20128;45.582;5.298;2023-09-07T10:56:49;31.40;41.80
33827;DHT22;20128;45.582;5.298;2023-09-07T10:59:15;31.50;42.30
33827;DHT22;20128;45.582;5.298;2023-09-07T11:01:43;31.60;41.60
33827;DHT22;20128;45.582;5.298;2023-09-07T11:04:09;31.60;41.30
33827;DHT22;20128;45.582;5.298;2023-09-07T11:06:37;31.70;41.20
33827;DHT22;20128;45.582;5.298;2023-09-07T11:09:03;31.80;41.20
33827;DHT22;20128;45.582;5.298;2023-09-07T11:11:35;31.80;41.20
33827;DHT22;20128;45.582;5.298;2023-09-07T11:14:04;31.80;41.30
33827;DHT22;20128;45.582;5.298;2023-09-07T11:16:32;31.90;41.30
33827;DHT22;20128;45.582;5.298;2023-09-07T11:19:06;32.00;41.30
33827;DHT22;20128;45.582;5.298;2023-09-07T11:21:32;32.00;40.70
33827;DHT22;20128;45.582;5.298;2023-09-07T11:24:00;32.00;40.90
33827;DHT22;20128;45.582;5.298;2023-09-07T11:26:26;31.80;40.80
33827;DHT22;20128;45.582;5.298;2023-09-07T11:28:51;31.80;41.00
33827;DHT22;20128;45.582;5.298;2023-09-07T11:31:20;31.80;41.10
33827;DHT22;20128;45.582;5.298;2023-09-07T11:33:47;31.90;41.20
33827;DHT22;20128;45.582;5.298;2023-09-07T11:36:14;31.90;40.90
33827;DHT22;20128;45.582;5.298;2023-09-07T11:38:43;31.90;41.10
33827;DHT22;20128;45.582;5.298;2023-09-07T11:41:09;31.80;40.90
33827;DHT22;20128;45.582;5.298;2023-09-07T11:43:35;31.90;41.10
33827;DHT22;20128;45.582;5.298;2023-09-07T11:46:00;31.80;40.70
33827;DHT22;20128;45.582;5.298;2023-09-07T11:48:26;31.80;40.90
33827;DHT22;20128;45.582;5.298;2023-09-07T11:50:53;31.70;41.00
33827;DHT22;20128;45.582;5.298;2023-09-07T11:53:19;31.70;40.70
33827;DHT22;20128;45.582;5.298;2023-09-07T11:55:45;31.70;40.60
33827;DHT22;20128;45.582;5.298;2023-09-07T11:58:10;31.70;40.40
33827;DHT22;20128;45.582;5.298;2023-09-07T12:00:36;31.70;40.30
33827;DHT22;20128;45.582;5.298;2023-09-07T12:03:02;31.70;40.40
33827;DHT22;20128;45.582;5.298;2023-09-07T12:05:28;31.70;40.30
33827;DHT22;20128;45.582;5.298;2023-09-07T12:07:54;31.70;40.50
33827;DHT22;20128;45.582;5.298;2023-09-07T12:10:20;31.70;40.30
33827;DHT22;20128;45.582;5.298;2023-09-07T12:12:46;31.70;40.70
33827;DHT22;20128;45.582;5.298;2023-09-07T12:15:11;31.70;40.10
33827;DHT22;20128;45.582;5.298;2023-09-07T12:17:37;31.70;40.80
33827;DHT22;20128;45.582;5.298;2023-09-07T12:20:03;31.70;40.50
33827;DHT22;20128;45.582;5.298;2023-09-07T12:22:38;31.70;40.50
33827;DHT22;20128;45.582;5.298;2023-09-07T12:25:07;31.70;41.40
33827;DHT22;20128;45.582;5.298;2023-09-07T12:27:33;31.80;40.90
33827;DHT22;20128;45.582;5.298;2023-09-07T12:30:00;31.80;40.50
33827;DHT22;20128;45.582;5.298;2023-09-07T12:32:25;31.70;40.60
33827;DHT22;20128;45.582;5.298;2023-09-07T12:34:51;31.70;41.10
33827;DHT22;20128;45.582;5.298;2023-09-07T12:37:19;31.80;41.20
33827;DHT22;20128;45.582;5.298;2023-09-07T12:39:49;31.90;41.20
33827;DHT22;20128;45.582;5.298;2023-09-07T12:42:14;31.90;41.40
33827;DHT22;20128;45.582;5.298;2023-09-07T12:44:40;32.00;41.20
33827;DHT22;20128;45.582;5.298;2023-09-07T12:47:06;32.10;40.90
33827;DHT22;20128;45.582;5.298;2023-09-07T12:49:31;32.10;40.50
33827;DHT22;20128;45.582;5.298;2023-09-07T12:51:57;32.10;40.60
33827;DHT22;20128;45.582;5.298;2023-09-07T12:54:22;32.00;40.70
33827;DHT22;20128;45.582;5.298;2023-09-07T12:56:49;32.10;40.50
33827;DHT22;20128;45.582;5.298;2023-09-07T12:59:14;32.10;40.60
33827;DHT22;20128;45.582;5.298;2023-09-07T13:01:40;32.10;40.10
33827;DHT22;20128;45.582;5.298;2023-09-07T13:04:06;32.00;40.10
33827;DHT22;20128;45.582;5.298;2023-09-07T13:06:31;32.10;40.40
33827;DHT22;20128;45.582;5.298;2023-09-07T13:08:57;32.10;40.20
33827;DHT22;20128;45.582;5.298;2023-09-07T13:11:22;32.10;40.00
33827;DHT22;20128;45.582;5.298;2023-09-07T13:13:48;32.10;40.00
33827;DHT22;20128;45.582;5.298;2023-09-07T13:16:14;32.10;40.10
33827;DHT22;20128;45.582;5.298;2023-09-07T13:18:40;32.10;40.40
33827;DHT22;20128;45.582;5.298;2023-09-07T13:21:05;32.10;39.80
33827;DHT22;20128;45.582;5.298;2023-09-07T13:23:32;32.10;39.60
33827;DHT22;20128;45.582;5.298;2023-09-07T13:25:57;32.10;39.60
33827;DHT22;20128;45.582;5.298;2023-09-07T13:28:25;32.10;39.70
33827;DHT22;20128;45.582;5.298;2023-09-07T13:30:51;32.20;39.50
33827;DHT22;20128;45.582;5.298;2023-09-07T13:33:17;32.20;39.40
33827;DHT22;20128;45.582;5.298;2023-09-07T13:35:42;32.30;39.10
33827;DHT22;20128;45.582;5.298;2023-09-07T13:38:09;32.30;39.20
33827;DHT22;20128;45.582;5.298;2023-09-07T13:40:34;32.40;39.20
33827;DHT22;20128;45.582;5.298;2023-09-07T13:43:00;32.40;39.40
33827;DHT22;20128;45.582;5.298;2023-09-07T13:45:26;32.40;39.50
33827;DHT22;20128;45.582;5.298;2023-09-07T13:47:51;32.50;39.90
33827;DHT22;20128;45.582;5.298;2023-09-07T13:50:17;32.50;39.50
33827;DHT22;20128;45.582;5.298;2023-09-07T13:52:43;32.60;40.10
33827;DHT22;20128;45.582;5.298;2023-09-07T13:55:08;32.60;39.30
33827;DHT22;20128;45.582;5.298;2023-09-07T13:57:34;32.60;39.20
33827;DHT22;20128;45.582;5.298;2023-09-07T14:00:00;32.70;39.60
33827;DHT22;20128;45.582;5.298;2023-09-07T14:02:26;32.80;39.50
33827;DHT22;20128;45.582;5.298;2023-09-07T14:04:52;32.90;39.00
33827;DHT22;20128;45.582;5.298;2023-09-07T14:07:17;32.90;39.10
33827;DHT22;20128;45.582;5.298;2023-09-07T14:09:43;32.90;39.20
33827;DHT22;20128;45.582;5.298;2023-09-07T14:12:09;33.00;39.20
33827;DHT22;20128;45.582;5.298;2023-09-07T14:14:35;33.20;39.00
33827;DHT22;20128;45.582;5.298;2023-09-07T14:17:01;33.40;39.10
33827;DHT22;20128;45.582;5.298;2023-09-07T14:19:27;33.60;38.00
33827;DHT22;20128;45.582;5.298;2023-09-07T14:21:56;33.60;37.30
33827;DHT22;20128;45.582;5.298;2023-09-07T14:24:23;33.60;37.10
33827;DHT22;20128;45.582;5.298;2023-09-07T14:26:48;33.60;37.20
33827;DHT22;20128;45.582;5.298;2023-09-07T14:29:14;33.60;37.50
33827;DHT22;20128;45.582;5.298;2023-09-07T14:31:40;33.70;37.80
33827;DHT22;20128;45.582;5.298;2023-09-07T14:34:08;33.80;37.90
33827;DHT22;20128;45.582;5.298;2023-09-07T14:36:33;33.90;37.90
33827;DHT22;20128;45.582;5.298;2023-09-07T14:38:59;34.10;37.50
33827;DHT22;20128;45.582;5.298;2023-09-07T14:41:25;34.20;37.60
33827;DHT22;20128;45.582;5.298;2023-09-07T14:43:50;34.30;38.00
33827;DHT22;20128;45.582;5.298;2023-09-07T14:46:17;34.30;37.50
33827;DHT22;20128;45.582;5.298;2023-09-07T14:48:43;34.40;37.70
33827;DHT22;20128;45.582;5.298;2023-09-07T14:51:09;34.50;38.40
33827;DHT22;20128;45.582;5.298;2023-09-07T14:53:35;34.50;39.10
33827;DHT22;20128;45.582;5.298;2023-09-07T14:56:01;34.50;38.50
33827;DHT22;20128;45.582;5.298;2023-09-07T14:58:27;34.40;37.60
33827;DHT22;20128;45.582;5.298;2023-09-07T15:00:52;34.40;37.60
33827;DHT22;20128;45.582;5.298;2023-09-07T15:03:18;34.50;38.70
33827;DHT22;20128;45.582;5.298;2023-09-07T15:05:44;34.40;39.10
33827;DHT22;20128;45.582;5.298;2023-09-07T15:08:09;34.40;38.30
33827;DHT22;20128;45.582;5.298;2023-09-07T15:10:35;34.30;38.60
33827;DHT22;20128;45.582;5.298;2023-09-07T15:13:01;34.30;39.20
33827;DHT22;20128;45.582;5.298;2023-09-07T15:15:28;34.10;38.70
33827;DHT22;20128;45.582;5.298;2023-09-07T15:17:54;34.10;38.30
33827;DHT22;20128;45.582;5.298;2023-09-07T15:20:20;34.00;39.50
33827;DHT22;20128;45.582;5.298;2023-09-07T15:22:46;34.00;38.90
33827;DHT22;20128;45.582;5.298;2023-09-07T15:25:11;34.00;38.90